createdAt,value
2022-10-25T00:01:41.935Z,100847.84
2022-10-25T00:03:44.651Z,100848.69
2022-10-25T00:05:46.285Z,100842.56
2022-10-25T00:07:48.176Z,100850.31
2022-10-25T00:09:49.926Z,100854.72
2022-10-25T00:11:51.734Z,100849.53
2022-10-25T00:13:55.172Z,100853.00
2022-10-25T00:15:56.919Z,100854.72
2022-10-25T00:17:58.562Z,100856.44
2022-10-25T00:20:00.229Z,100863.38
2022-10-25T00:22:01.872Z,100850.31
2022-10-25T00:24:04.904Z,100857.28
2022-10-25T00:26:08.572Z,100855.41
2022-10-25T00:28:10.467Z,100853.78
2022-10-25T00:30:12.846Z,100865.81
2022-10-25T00:32:14.607Z,100858.09
2022-10-25T00:34:16.209Z,100858.97
2022-10-25T00:36:23.355Z,100859.81
2022-10-25T00:38:24.982Z,100865.00
2022-10-25T00:40:26.693Z,100865.06
2022-10-25T00:42:28.343Z,100871.97
2022-10-25T00:44:38.666Z,100874.56
2022-10-25T00:46:40.867Z,100867.66
2022-10-25T00:49:05.414Z,100871.03
2022-10-25T00:51:07.278Z,100859.78
2022-10-25T00:53:14.024Z,100868.41
2022-10-25T00:55:18.927Z,100874.38
2022-10-25T00:57:43.822Z,100869.97
2022-10-25T00:59:47.290Z,100867.47
2022-10-25T01:01:50.039Z,100870.84
2022-10-25T01:03:54.135Z,100876.94
2022-10-25T01:05:58.525Z,100869.19
2022-10-25T01:08:00.233Z,100862.19
2022-10-25T01:10:02.171Z,100870.81
2022-10-25T01:12:04.722Z,100869.94
2022-10-25T01:14:09.183Z,100871.56
2022-10-25T01:16:34.866Z,100875.03
2022-10-25T01:18:46.672Z,100871.47
2022-10-25T01:21:07.027Z,100869.84
2022-10-25T01:23:11.681Z,100878.47
2022-10-25T01:25:41.362Z,100867.25
2022-10-25T01:28:04.837Z,100868.13
2022-10-25T01:30:06.545Z,100868.97
2022-10-25T01:32:16.539Z,100874.25
2022-10-25T01:34:26.969Z,100880.28
2022-10-25T01:36:55.804Z,100882.75
2022-10-25T01:39:14.951Z,100878.47
2022-10-25T01:41:28.242Z,100879.44
2022-10-25T01:43:57.297Z,100877.69
2022-10-25T01:46:09.066Z,100883.59
2022-10-25T01:48:23.295Z,100887.94
2022-10-25T01:50:31.473Z,100891.38
2022-10-25T01:52:33.212Z,100889.78
2022-10-25T01:54:34.915Z,100891.56
2022-10-25T01:56:48.931Z,100896.66
2022-10-25T01:58:56.681Z,100890.59
2022-10-25T02:01:33.046Z,100900.09
2022-10-25T02:03:47.631Z,100888.06
2022-10-25T02:06:01.357Z,100888.94
2022-10-25T02:08:24.339Z,100886.44
2022-10-25T02:10:25.884Z,100886.41
2022-10-25T02:12:43.195Z,100882.00
2022-10-25T02:15:08.870Z,100888.13
2022-10-25T02:17:23.396Z,100886.34
2022-10-25T02:19:33.010Z,100892.47
2022-10-25T02:21:36.776Z,100896.75
2022-10-25T02:23:40.287Z,100891.63
2022-10-25T02:25:42.910Z,100887.19
2022-10-25T02:27:46.175Z,100881.25
2022-10-25T02:29:48.608Z,100888.06
2022-10-25T02:31:50.707Z,100883.00
2022-10-25T02:33:52.579Z,100895.13
2022-10-25T02:36:19.541Z,100890.75
2022-10-25T02:38:21.292Z,100892.56
2022-10-25T02:40:23.689Z,100888.22
2022-10-25T02:42:25.506Z,100882.94
2022-10-25T02:44:27.238Z,100892.44
2022-10-25T02:46:29.333Z,100886.41
2022-10-25T02:48:30.957Z,100888.28
2022-10-25T02:50:32.816Z,100889.97
2022-10-25T02:52:34.493Z,100885.66
2022-10-25T02:54:36.120Z,100888.28
2022-10-25T02:56:38.322Z,100888.22
2022-10-25T02:58:43.040Z,100896.00
2022-10-25T03:00:44.686Z,100891.69
2022-10-25T03:02:46.567Z,100890.00
2022-10-25T03:04:48.417Z,100882.28
2022-10-25T03:06:50.117Z,100887.38
2022-10-25T03:08:51.802Z,100883.09
2022-10-25T03:10:54.216Z,100881.38
2022-10-25T03:12:55.871Z,100889.97
2022-10-25T03:14:57.476Z,100884.81
2022-10-25T03:16:59.123Z,100888.25
2022-10-25T03:19:00.745Z,100886.56
2022-10-25T03:21:03.703Z,100888.28
2022-10-25T03:23:06.297Z,100887.41
2022-10-25T03:27:10.898Z,100892.59
2022-10-25T03:29:12.675Z,100890.06
2022-10-25T03:31:16.739Z,100891.72
2022-10-25T03:33:26.379Z,100895.22
2022-10-25T03:35:28.372Z,100897.75
2022-10-25T03:37:30.026Z,100906.34
2022-10-25T03:39:31.658Z,100907.31
2022-10-25T03:41:33.359Z,100907.31
2022-10-25T03:43:35.025Z,100908.97
2022-10-25T03:45:36.787Z,100909.03
2022-10-25T03:47:39.612Z,100909.91
2022-10-25T03:49:41.224Z,100914.13
2022-10-25T03:51:42.932Z,100907.16
2022-10-25T03:53:44.600Z,100909.66
2022-10-25T03:55:46.294Z,100915.72
2022-10-25T03:57:48.450Z,100913.06
2022-10-25T03:59:50.518Z,100901.06
2022-10-25T04:01:52.219Z,100911.44
2022-10-25T04:03:53.963Z,100908.75
2022-10-25T04:05:55.691Z,100907.88
2022-10-25T04:07:57.507Z,100905.13
2022-10-25T04:09:59.342Z,100915.63
2022-10-25T04:12:01.114Z,100920.75
2022-10-25T04:14:02.866Z,100918.25
2022-10-25T04:16:08.244Z,100917.47
2022-10-25T04:18:09.855Z,100913.16
2022-10-25T04:20:11.922Z,100908.81
2022-10-25T04:22:13.768Z,100912.31
2022-10-25T04:24:15.372Z,100917.53
2022-10-25T04:26:20.448Z,100916.59
2022-10-25T04:28:23.537Z,100918.41
2022-10-25T04:30:25.139Z,100927.91
2022-10-25T04:32:26.867Z,100927.84
2022-10-25T04:34:28.486Z,100917.50
2022-10-25T04:36:31.216Z,100925.25
2022-10-25T04:38:32.907Z,100931.28
2022-10-25T04:40:34.643Z,100926.06
2022-10-25T04:42:36.308Z,100929.56
2022-10-25T04:44:38.004Z,100929.50
2022-10-25T04:47:00.427Z,100922.59
2022-10-25T04:49:02.048Z,100926.94
2022-10-25T04:51:04.712Z,100936.47
2022-10-25T04:53:06.648Z,100935.59
2022-10-25T04:55:08.396Z,100932.13
2022-10-25T04:57:10.154Z,100933.00
2022-10-25T04:59:12.256Z,100934.78
2022-10-25T05:01:16.810Z,100946.88
2022-10-25T05:03:30.327Z,100939.06
2022-10-25T05:05:32.054Z,100938.28
2022-10-25T05:07:33.913Z,100943.47
2022-10-25T05:09:35.540Z,100948.63
2022-10-25T05:13:45.129Z,100944.34
2022-10-25T05:15:57.123Z,100946.91
2022-10-25T05:17:59.687Z,100949.38
2022-10-25T05:20:01.836Z,100943.44
2022-10-25T05:22:03.588Z,100950.38
2022-10-25T05:24:05.518Z,100947.78
2022-10-25T05:26:13.352Z,100957.28
2022-10-25T05:28:15.783Z,100961.53
2022-10-25T05:30:17.463Z,100953.00
2022-10-25T05:32:19.212Z,100955.53
2022-10-25T05:34:21.859Z,100958.22
2022-10-25T05:36:23.729Z,100960.78
2022-10-25T05:38:25.340Z,100964.25
2022-10-25T05:40:27.156Z,100965.13
2022-10-25T05:42:28.939Z,100966.84
2022-10-25T05:44:30.607Z,100968.59
2022-10-25T05:46:32.692Z,100967.78
2022-10-25T05:48:35.933Z,100965.22
2022-10-25T05:50:37.551Z,100967.81
2022-10-25T05:52:43.321Z,100972.97
2022-10-25T05:54:45.160Z,100972.91
2022-10-25T05:56:46.746Z,100974.75
2022-10-25T05:58:48.687Z,100978.13
2022-10-25T06:00:50.320Z,100979.78
2022-10-25T06:02:52.129Z,100973.88
2022-10-25T06:04:53.812Z,100977.31
2022-10-25T06:06:55.503Z,100985.16
2022-10-25T06:08:58.629Z,100983.44
2022-10-25T06:11:06.430Z,100983.47
2022-10-25T06:13:08.179Z,100984.34
2022-10-25T06:15:10.310Z,100990.44
2022-10-25T06:17:13.807Z,100988.72
2022-10-25T06:19:15.480Z,100996.50
2022-10-25T06:21:25.054Z,100990.44
2022-10-25T06:23:33.726Z,100996.50
2022-10-25T06:25:35.632Z,100993.94
2022-10-25T06:27:37.250Z,100999.09
2022-10-25T06:29:38.965Z,101000.03
2022-10-25T06:31:41.724Z,101000.03
2022-10-25T06:33:43.965Z,100997.47
2022-10-25T06:35:45.600Z,101002.59
2022-10-25T06:37:47.263Z,100998.28
2022-10-25T06:39:49.056Z,100996.53
2022-10-25T06:41:50.717Z,100998.22
2022-10-25T06:43:52.534Z,101001.63
2022-10-25T06:45:54.677Z,100999.00
2022-10-25T06:47:56.882Z,101004.16
2022-10-25T06:49:58.694Z,100995.53
2022-10-25T06:52:00.413Z,101002.44
2022-10-25T06:54:08.555Z,101002.44
2022-10-25T06:56:14.519Z,101005.88
2022-10-25T06:58:17.243Z,101006.69
2022-10-25T07:00:56.000Z,101000.69
2022-10-25T07:02:59.259Z,101016.16
2022-10-25T07:05:00.897Z,101017.69
2022-10-25T07:07:02.730Z,101018.63
2022-10-25T07:09:05.751Z,101020.34
2022-10-25T07:11:12.694Z,101023.78
2022-10-25T07:13:22.589Z,101028.09
2022-10-25T07:15:25.084Z,101022.91
2022-10-25T07:17:27.492Z,101026.38
2022-10-25T07:19:29.205Z,101028.97
2022-10-25T07:21:32.676Z,101029.78
2022-10-25T07:23:34.793Z,101032.41
2022-10-25T07:25:36.543Z,101030.75
2022-10-25T07:27:38.295Z,101034.22
2022-10-25T07:29:40.011Z,101040.25
2022-10-25T07:31:45.677Z,101038.50
2022-10-25T07:33:48.727Z,101036.81
2022-10-25T07:36:06.194Z,101050.69
2022-10-25T07:38:11.862Z,101048.88
2022-10-25T07:40:13.516Z,101047.25
2022-10-25T07:42:15.162Z,101044.69
2022-10-25T07:44:21.338Z,101054.19
2022-10-25T07:46:25.663Z,101051.56
2022-10-25T07:48:27.635Z,101048.13
2022-10-25T07:50:29.360Z,101044.69
2022-10-25T07:52:31.048Z,101046.41
2022-10-25T07:54:32.901Z,101057.63
2022-10-25T07:56:35.176Z,101054.19
2022-10-25T07:58:36.792Z,101056.81
2022-10-25T08:00:38.782Z,101055.13
2022-10-25T08:02:40.684Z,101054.28
2022-10-25T08:04:43.350Z,101054.28
2022-10-25T08:06:45.056Z,101043.97
2022-10-25T08:08:46.771Z,101050.88
2022-10-25T08:10:48.448Z,101050.88
2022-10-25T08:12:50.906Z,101056.09
2022-10-25T08:14:57.447Z,101060.41
2022-10-25T08:16:59.070Z,101058.69
2022-10-25T08:19:00.724Z,101060.53
2022-10-25T08:21:04.292Z,101063.06
2022-10-25T08:23:07.254Z,101060.50
2022-10-25T08:25:09.394Z,101060.53
2022-10-25T08:27:11.432Z,101064.03
2022-10-25T08:29:13.117Z,101068.34
2022-10-25T08:31:14.815Z,101067.47
2022-10-25T08:33:17.853Z,101058.84
2022-10-25T08:35:19.599Z,101064.13
2022-10-25T08:37:21.382Z,101064.97
2022-10-25T08:39:22.992Z,101063.19
2022-10-25T08:41:46.398Z,101070.09
2022-10-25T08:44:04.546Z,101056.28
2022-10-25T08:46:17.557Z,101063.28
2022-10-25T08:48:23.992Z,101062.44
2022-10-25T08:50:40.766Z,101061.56
2022-10-25T08:52:45.263Z,101062.44
2022-10-25T08:54:47.431Z,101070.97
2022-10-25T08:57:10.727Z,101072.00
2022-10-25T08:59:22.201Z,101073.75
2022-10-25T09:01:54.694Z,101072.06
2022-10-25T09:04:04.319Z,101072.09
2022-10-25T09:06:28.752Z,101076.44
2022-10-25T09:08:58.557Z,101077.28
2022-10-25T09:11:19.039Z,101073.00
2022-10-25T09:13:21.134Z,101076.53
2022-10-25T09:15:29.348Z,101083.44
2022-10-25T09:17:53.277Z,101086.91
2022-10-25T09:20:03.994Z,101081.00
2022-10-25T09:22:08.239Z,101082.75
2022-10-25T09:24:24.992Z,101088.84
2022-10-25T09:26:41.120Z,101086.22
2022-10-25T09:28:52.070Z,101095.81
2022-10-25T09:30:57.308Z,101093.28
2022-10-25T09:33:03.061Z,101102.72
2022-10-25T09:35:13.491Z,101083.75
2022-10-25T09:37:25.559Z,101083.78
2022-10-25T09:39:45.152Z,101093.34
2022-10-25T09:42:07.657Z,101109.81
2022-10-25T09:44:27.851Z,101103.72
2022-10-25T09:46:37.916Z,101092.47
2022-10-25T09:48:50.158Z,101096.03
2022-10-25T09:51:01.223Z,101089.97
2022-10-25T09:53:21.852Z,101086.59
2022-10-25T09:55:33.609Z,101085.72
2022-10-25T09:57:35.492Z,101084.06
2022-10-25T09:59:37.183Z,101084.13
2022-10-25T10:01:40.351Z,101083.25
2022-10-25T10:03:44.579Z,101083.25
2022-10-25T10:06:02.234Z,101082.41
2022-10-25T10:08:03.944Z,101084.16
2022-10-25T10:10:11.434Z,101076.38
2022-10-25T10:12:51.719Z,101077.25
2022-10-25T10:15:01.038Z,101075.53
2022-10-25T10:17:03.988Z,101079.91
2022-10-25T10:19:21.383Z,101086.88
2022-10-25T10:21:24.309Z,101075.63
2022-10-25T10:23:45.625Z,101080.81
2022-10-25T10:25:47.620Z,101075.59
2022-10-25T10:27:52.191Z,101082.53
2022-10-25T10:30:03.173Z,101074.75
2022-10-25T10:32:22.239Z,101081.69
2022-10-25T10:34:32.575Z,101071.31
2022-10-25T10:36:35.835Z,101075.72
2022-10-25T10:38:37.518Z,101073.06
2022-10-25T10:40:39.130Z,101071.38
2022-10-25T10:42:42.849Z,101069.69
2022-10-25T10:45:20.442Z,101070.53
2022-10-25T10:47:22.264Z,101074.88
2022-10-25T10:49:35.809Z,101074.00
2022-10-25T10:51:44.617Z,101072.28
2022-10-25T10:53:47.141Z,101065.34
2022-10-25T10:55:53.896Z,101061.03
2022-10-25T10:58:01.505Z,101070.56
2022-10-25T11:00:05.297Z,101067.97
2022-10-25T11:02:21.708Z,101084.44
2022-10-25T11:04:26.086Z,101076.66
2022-10-25T11:06:34.666Z,101078.38
2022-10-25T11:08:36.532Z,101083.53
2022-10-25T11:10:40.585Z,101080.09
2022-10-25T11:12:43.615Z,101070.56
2022-10-25T11:14:45.407Z,101071.44
2022-10-25T11:17:03.168Z,101062.78
2022-10-25T11:19:37.129Z,101068.84
2022-10-25T11:22:08.500Z,101083.56
2022-10-25T11:24:36.787Z,101066.22
2022-10-25T11:27:12.495Z,101065.38
2022-10-25T11:29:17.389Z,101064.53
2022-10-25T11:31:36.294Z,101049.75
2022-10-25T11:33:59.794Z,101051.50
2022-10-25T11:36:13.655Z,101061.88
2022-10-25T11:38:39.671Z,101055.81
2022-10-25T11:40:56.784Z,101068.81
2022-10-25T11:43:10.260Z,101058.41
2022-10-25T11:45:32.121Z,101059.25
2022-10-25T11:48:03.355Z,101062.75
2022-10-25T11:50:29.798Z,101061.88
2022-10-25T11:52:54.427Z,101069.69
2022-10-25T11:55:10.149Z,101073.16
2022-10-25T11:57:26.918Z,101063.63
2022-10-25T12:00:00.987Z,101071.41
2022-10-25T12:02:21.234Z,101063.63
2022-10-25T12:04:32.790Z,101053.22
2022-10-25T12:07:01.143Z,101048.03
2022-10-25T12:09:24.215Z,101051.50
2022-10-25T12:11:30.791Z,101053.22
2022-10-25T12:13:44.074Z,101042.84
2022-10-25T12:15:48.793Z,101044.56
2022-10-25T12:17:52.543Z,101041.06
2022-10-25T12:19:58.542Z,101043.69
2022-10-25T12:22:04.180Z,101044.56
2022-10-25T12:24:11.719Z,101050.63
2022-10-25T12:26:29.282Z,101046.28
2022-10-25T12:28:47.581Z,101051.50
2022-10-25T12:30:53.113Z,101044.59
2022-10-25T12:33:25.438Z,101044.59
2022-10-25T12:35:40.068Z,101033.31
2022-10-25T12:37:58.791Z,101035.03
2022-10-25T12:40:01.041Z,101029.81
2022-10-25T12:42:38.091Z,101034.16
2022-10-25T12:45:01.641Z,101022.03
2022-10-25T12:47:29.879Z,101026.34
2022-10-25T12:50:09.093Z,101018.56
2022-10-25T12:52:29.293Z,101010.75
2022-10-25T12:54:49.341Z,101005.56
2022-10-25T12:57:17.804Z,101002.06
2022-10-25T12:59:54.735Z,101000.31
2022-10-25T13:02:07.354Z,101002.03
2022-10-25T13:04:41.527Z,100998.53
2022-10-25T13:06:48.753Z,101003.69
2022-10-25T13:08:50.931Z,101005.38
2022-10-25T13:11:02.864Z,100995.72
2022-10-25T13:13:27.670Z,100991.34
2022-10-25T13:15:53.054Z,100984.28
2022-10-25T13:18:24.596Z,100979.06
2022-10-25T13:20:34.982Z,100976.31
2022-10-25T13:22:41.040Z,100964.94
2022-10-25T13:24:45.845Z,100978.78
2022-10-25T13:27:13.490Z,100985.75
2022-10-25T13:29:46.723Z,100978.81
2022-10-25T13:32:08.823Z,100975.38
2022-10-25T13:34:13.451Z,100975.47
2022-10-25T13:36:15.118Z,100973.72
2022-10-25T13:38:26.025Z,100984.22
2022-10-25T13:40:30.348Z,100986.84
2022-10-25T13:42:37.583Z,100985.16
2022-10-25T13:44:55.686Z,100988.72
2022-10-25T13:46:57.381Z,100987.03
2022-10-25T13:49:01.365Z,100992.31
2022-10-25T13:51:11.458Z,100988.84
2022-10-25T13:53:37.739Z,100983.75
2022-10-25T13:55:46.737Z,100971.66
2022-10-25T13:57:56.697Z,100986.41
2022-10-25T14:00:01.530Z,100974.19
2022-10-25T14:02:21.605Z,100962.09
2022-10-25T14:04:35.112Z,100952.50
2022-10-25T14:06:40.892Z,100949.81
2022-10-25T14:08:58.614Z,100944.59
2022-10-25T14:11:14.368Z,100946.25
2022-10-25T14:14:01.627Z,100958.38
2022-10-25T14:16:04.827Z,100949.78
2022-10-25T14:18:13.898Z,100945.41
2022-10-25T14:20:24.733Z,100951.41
2022-10-25T14:22:38.424Z,100944.47
2022-10-25T14:24:42.320Z,100942.72
2022-10-25T14:26:53.806Z,100937.44
2022-10-25T14:29:13.513Z,100933.91
2022-10-25T14:31:21.304Z,100932.16
2022-10-25T14:33:31.177Z,100936.56
2022-10-25T14:35:53.065Z,100929.53
2022-10-25T14:37:54.851Z,100931.25
2022-10-25T14:39:56.502Z,100933.91
2022-10-25T14:42:01.415Z,100922.56
2022-10-25T14:44:03.428Z,100926.91
2022-10-25T14:46:12.386Z,100921.66
2022-10-25T14:48:14.973Z,100921.59
2022-10-25T14:50:20.399Z,100924.19
2022-10-25T14:52:22.135Z,100923.34
2022-10-25T14:54:30.923Z,100927.69
2022-10-25T14:56:39.811Z,100913.81
2022-10-25T14:58:43.776Z,100918.25
2022-10-25T15:01:00.334Z,100922.63
2022-10-25T15:03:05.708Z,100922.63
2022-10-25T15:05:14.275Z,100920.09
2022-10-25T15:07:23.220Z,100928.03
2022-10-25T15:12:13.120Z,100916.75
2022-10-25T15:14:16.388Z,100916.00
2022-10-25T15:16:44.491Z,100918.63
2022-10-25T15:18:46.113Z,100921.19
2022-10-25T15:21:01.465Z,100918.56
2022-10-25T15:23:06.206Z,100919.50
2022-10-25T15:25:30.448Z,100902.94
2022-10-25T15:27:37.347Z,100909.94
2022-10-25T15:29:41.909Z,100907.47
2022-10-25T15:31:44.053Z,100898.78
2022-10-25T15:33:48.414Z,100898.66
2022-10-25T15:35:53.055Z,100897.03
2022-10-25T15:37:56.375Z,100896.16
2022-10-25T15:39:58.387Z,100897.91
2022-10-25T15:42:00.087Z,100897.88
2022-10-25T15:44:01.701Z,100900.47
2022-10-25T15:46:03.424Z,100903.06
2022-10-25T15:48:06.517Z,100894.38
2022-10-25T15:50:16.849Z,100897.84
2022-10-25T15:52:18.720Z,100894.47
2022-10-25T15:54:23.246Z,100895.31
2022-10-25T15:56:24.918Z,100905.75
2022-10-25T15:58:26.569Z,100887.56
2022-10-25T16:00:30.977Z,100885.81
2022-10-25T16:02:32.722Z,100889.34
2022-10-25T16:04:34.470Z,100883.25
2022-10-25T16:06:36.114Z,100883.22
2022-10-25T16:08:37.902Z,100886.75
2022-10-25T16:10:39.839Z,100871.16
2022-10-25T16:12:44.067Z,100870.28
2022-10-25T16:14:46.560Z,100872.03
2022-10-25T16:16:48.639Z,100875.53
2022-10-25T16:18:50.428Z,100879.88
2022-10-25T16:20:52.121Z,100888.53
2022-10-25T16:22:55.643Z,100887.66
2022-10-25T16:24:57.265Z,100879.84
2022-10-25T16:27:00.893Z,100887.69
2022-10-25T16:29:03.135Z,100883.34
2022-10-25T16:31:04.888Z,100873.78
2022-10-25T16:33:06.527Z,100869.50
2022-10-25T16:35:08.994Z,100876.41
2022-10-25T16:37:11.876Z,100872.97
2022-10-25T16:39:13.923Z,100860.78
2022-10-25T16:41:24.323Z,100866.91
2022-10-25T16:43:36.725Z,100875.56
2022-10-25T16:45:38.344Z,100872.09
2022-10-25T16:47:40.037Z,100872.13
2022-10-25T16:49:41.675Z,100862.56
2022-10-25T16:51:44.379Z,100866.06
2022-10-25T16:53:48.168Z,100861.75
2022-10-25T16:55:49.816Z,100865.22
2022-10-25T16:57:51.509Z,100872.16
2022-10-25T16:59:53.179Z,100868.69
2022-10-25T17:01:55.686Z,100867.84
2022-10-25T17:03:57.449Z,100861.78
2022-10-25T17:06:00.542Z,100868.72
2022-10-25T17:08:06.416Z,100866.13
2022-10-25T17:10:09.258Z,100860.09
2022-10-25T17:12:11.996Z,100865.31
2022-10-25T17:14:14.311Z,100860.09
2022-10-25T17:16:16.606Z,100862.69
2022-10-25T17:18:21.731Z,100856.59
2022-10-25T17:20:24.095Z,100845.34
2022-10-25T17:22:27.271Z,100846.22
2022-10-25T17:24:32.971Z,100835.84
2022-10-25T17:26:35.153Z,100842.75
2022-10-25T17:28:41.436Z,100837.59
2022-10-25T17:30:45.738Z,100838.41
2022-10-25T17:32:47.412Z,100834.97
2022-10-25T17:34:49.063Z,100835.84
2022-10-25T17:39:00.265Z,100840.19
2022-10-25T17:41:02.122Z,100841.94
2022-10-25T17:43:04.082Z,100843.63
2022-10-25T17:45:06.386Z,100835.00
2022-10-25T17:47:08.135Z,100830.66
2022-10-25T17:49:10.165Z,100832.41
2022-10-25T17:51:14.240Z,100827.22
2022-10-25T17:53:16.142Z,100824.63
2022-10-25T17:55:17.931Z,100824.59
2022-10-25T17:57:19.690Z,100825.50
2022-10-25T17:59:21.496Z,100821.16
2022-10-25T18:01:26.555Z,100822.88
2022-10-25T18:03:28.217Z,100822.84
2022-10-25T18:05:30.470Z,100818.56
2022-10-25T18:07:35.239Z,100808.16
2022-10-25T18:09:36.952Z,100812.50
2022-10-25T18:11:39.068Z,100814.22
2022-10-25T18:13:41.759Z,100807.28
2022-10-25T18:15:45.048Z,100814.22
2022-10-25T18:17:47.202Z,100815.06
2022-10-25T18:19:49.145Z,100809.00
2022-10-25T18:21:51.057Z,100813.34
2022-10-25T18:23:57.848Z,100811.59
2022-10-25T18:25:59.580Z,100805.53
2022-10-25T18:28:01.521Z,100805.56
2022-10-25T18:30:04.419Z,100802.09
2022-10-25T18:32:06.143Z,100814.22
2022-10-25T18:34:07.938Z,100809.00
2022-10-25T18:36:21.873Z,100802.97
2022-10-25T18:38:23.522Z,100804.69
2022-10-25T18:40:25.244Z,100809.81
2022-10-25T18:42:27.002Z,100803.84
2022-10-25T18:44:28.632Z,100805.53
2022-10-25T18:46:32.000Z,100797.75
2022-10-25T18:48:33.709Z,100796.91
2022-10-25T18:50:39.188Z,100792.56
2022-10-25T18:52:43.483Z,100790.88
2022-10-25T18:54:45.214Z,100793.47
2022-10-25T18:56:46.870Z,100780.50
2022-10-25T18:58:48.585Z,100782.22
2022-10-25T19:00:50.460Z,100782.22
2022-10-25T19:02:56.465Z,100780.50
2022-10-25T19:04:58.116Z,100771.84
2022-10-25T19:06:59.814Z,100782.22
2022-10-25T19:09:03.035Z,100779.63
2022-10-25T19:11:10.180Z,100775.28
2022-10-25T19:13:29.019Z,100776.16
2022-10-25T19:15:30.886Z,100777.03
2022-10-25T19:17:32.518Z,100770.09
2022-10-25T19:19:34.167Z,100770.13
2022-10-25T19:21:36.295Z,100779.63
2022-10-25T19:23:45.947Z,100770.13
2022-10-25T19:25:47.932Z,100771.00
2022-10-25T19:27:49.830Z,100767.53
2022-10-25T19:29:51.773Z,100757.13
2022-10-25T19:31:53.493Z,100763.19
2022-10-25T19:33:58.443Z,100753.69
2022-10-25T19:36:10.554Z,100754.53
2022-10-25T19:38:12.273Z,100749.34
2022-10-25T19:40:14.280Z,100742.44
2022-10-25T19:42:15.976Z,100740.72
2022-10-25T19:44:17.624Z,100739.81
2022-10-25T19:46:19.819Z,100744.13
2022-10-25T19:48:34.094Z,100739.84
2022-10-25T19:50:47.943Z,100731.19
2022-10-25T19:52:50.469Z,100740.69
2022-10-25T19:54:52.124Z,100731.19
2022-10-25T19:56:55.324Z,100735.50
2022-10-25T19:58:57.098Z,100712.97
2022-10-25T20:01:25.302Z,100724.22
2022-10-25T20:03:30.155Z,100716.41
2022-10-25T20:05:32.015Z,100714.69
2022-10-25T20:07:33.956Z,100718.16
2022-10-25T20:09:35.650Z,100718.16
2022-10-25T20:11:37.338Z,100709.50
2022-10-25T20:13:39.422Z,100715.59
2022-10-25T20:15:50.217Z,100704.34
2022-10-25T20:17:51.847Z,100700.00
2022-10-25T20:19:53.629Z,100695.72
2022-10-25T20:21:55.232Z,100693.97
2022-10-25T20:23:59.576Z,100683.56
2022-10-25T20:26:15.507Z,100684.44
2022-10-25T20:28:17.246Z,100685.28
2022-10-25T20:30:18.924Z,100687.06
2022-10-25T20:32:21.532Z,100680.13
2022-10-25T20:34:23.273Z,100683.59
2022-10-25T20:36:25.882Z,100675.78
2022-10-25T20:38:27.599Z,100666.28
2022-10-25T20:40:31.007Z,100668.00
2022-10-25T20:42:32.831Z,100662.81
2022-10-25T20:44:34.551Z,100672.31
2022-10-25T20:46:37.040Z,100657.69
2022-10-25T20:48:38.710Z,100655.03
2022-10-25T20:50:46.033Z,100649.88
2022-10-25T20:53:05.440Z,100646.38
2022-10-25T20:55:09.877Z,100643.78
2022-10-25T20:57:11.496Z,100651.59
2022-10-25T20:59:13.195Z,100650.72
2022-10-25T21:01:15.011Z,100657.69
2022-10-25T21:03:31.089Z,100663.72
2022-10-25T21:05:32.860Z,100659.41
2022-10-25T21:07:34.506Z,100661.13
2022-10-25T21:09:36.125Z,100657.66
2022-10-25T21:11:37.795Z,100659.38
2022-10-25T21:13:40.057Z,100660.28
2022-10-25T21:15:46.535Z,100648.13
2022-10-25T21:17:49.398Z,100648.13
2022-10-25T21:19:51.395Z,100659.41
2022-10-25T21:21:53.035Z,100660.25
2022-10-25T21:23:56.685Z,100665.47
2022-10-25T21:25:59.807Z,100662.84
2022-10-25T21:28:01.558Z,100659.38
2022-10-25T21:30:04.148Z,100654.22
2022-10-25T21:32:05.882Z,100654.22
2022-10-25T21:34:07.681Z,100648.16
2022-10-25T21:36:12.689Z,100642.94
2022-10-25T21:38:14.483Z,100643.84
2022-10-25T21:40:17.792Z,100642.09
2022-10-25T21:42:19.500Z,100638.66
2022-10-25T21:44:22.349Z,100638.66
2022-10-25T21:46:25.759Z,100634.31
2022-10-25T21:48:27.391Z,100629.97
2022-10-25T21:50:29.233Z,100630.84
2022-10-25T21:52:31.031Z,100623.94
2022-10-25T21:54:32.777Z,100623.91
2022-10-25T21:56:34.499Z,100629.13
2022-10-25T21:58:37.261Z,100621.31
2022-10-25T22:00:42.166Z,100627.34
2022-10-25T22:04:51.116Z,100631.66
2022-10-25T22:06:52.751Z,100623.88
2022-10-25T22:08:55.789Z,100618.72
2022-10-25T22:13:06.259Z,100620.47
2022-10-25T22:15:08.606Z,100613.50
2022-10-25T22:17:10.352Z,100616.13
2022-10-25T22:19:18.090Z,100608.34
2022-10-25T22:21:21.219Z,100602.25
2022-10-25T22:23:33.550Z,100597.06
2022-10-25T22:25:35.213Z,100600.53
2022-10-25T22:27:38.650Z,100591.91
2022-10-25T22:29:40.336Z,100591.03
2022-10-25T22:31:42.198Z,100589.28
2022-10-25T22:33:44.873Z,100591.88
2022-10-25T22:35:46.496Z,100586.69
2022-10-25T22:37:48.513Z,100583.22
2022-10-25T22:39:50.325Z,100590.13
2022-10-25T22:41:53.661Z,100578.84
2022-10-25T22:43:55.611Z,100581.44
2022-10-25T22:46:01.059Z,100579.72
2022-10-25T22:48:02.827Z,100582.25
2022-10-25T22:50:05.014Z,100582.31
2022-10-25T22:52:06.644Z,100578.84
2022-10-25T22:54:08.564Z,100575.38
2022-10-25T22:56:13.054Z,100576.22
2022-10-25T22:58:14.732Z,100571.03
2022-10-25T23:00:16.572Z,100571.00
2022-10-25T23:02:18.214Z,100574.44
2022-10-25T23:04:20.015Z,100562.34
2022-10-25T23:06:33.177Z,100560.59
2022-10-25T23:08:34.871Z,100559.72
2022-10-25T23:10:36.559Z,100555.41
2022-10-25T23:12:38.264Z,100558.84
2022-10-25T23:14:39.922Z,100554.44
2022-10-25T23:16:41.518Z,100551.84
2022-10-25T23:18:43.951Z,100554.47
2022-10-25T23:20:56.883Z,100552.78
2022-10-25T23:22:58.562Z,100553.63
2022-10-25T23:25:00.471Z,100554.47
2022-10-25T23:27:02.082Z,100555.34
2022-10-25T23:29:04.445Z,100551.94
2022-10-25T23:31:07.756Z,100551.06
2022-10-25T23:33:11.651Z,100556.22
2022-10-25T23:35:13.379Z,100549.22
2022-10-25T23:37:15.094Z,100556.25
2022-10-25T23:39:16.707Z,100556.28
2022-10-25T23:41:20.096Z,100545.84
2022-10-25T23:43:21.940Z,100545.81
2022-10-25T23:45:23.968Z,100559.69
2022-10-25T23:47:25.647Z,100557.13
2022-10-25T23:49:27.317Z,100565.72
2022-10-25T23:51:29.002Z,100563.97
2022-10-25T23:53:31.351Z,100558.75
2022-10-25T23:55:33.197Z,100557.03
2022-10-25T23:57:34.975Z,100557.03
2022-10-25T23:59:36.627Z,100551.78
